Steptoe Valley North, Nevada Weather observations

Data are for 10 minute period ending at time listed.
 Day   Time   Solar   Ave.   Ave.  Ave.  Vector  Max.   Baro.   Total    
  of    of     Rad.   Air    Rel.  Wind   Wind   Wind  Press.  Precip.   
Year   Day            Temp.  Hum.  Speed  Dir.   Gust                    
2015   (PST)  Kw/m2    F      %     mph   deg.    mph    mb.     in.     
-------------------------------------------------------------------------
 117    2:00   0.00   23.5    77    4.6    88     7.0   825.5    0.00 
 117    2:10   0.00   25.3    73    4.6    92     6.1   825.5    0.00 
 117    2:20   0.00   26.0    72    4.6    89     6.9   825.6    0.00 
 117    2:30   0.00   29.4    65    3.5    76     4.6   825.6    0.00 
 117    2:40   0.00   27.3    65    2.7    95     4.1   825.7    0.00 
 117    2:50   0.00   22.0    76    4.2   102     5.2   825.7    0.00 
 117    3:00   0.00   24.2    76    3.3    90     4.2   825.7    0.00 
 117    3:10   0.00   27.4    68    2.1    85     3.1   825.7    0.00 
 117    3:20   0.00   25.4    73    3.0    81     4.2   825.7    0.00 
 117    3:30   0.00   25.2    70    2.9    70     3.7   825.7    0.00 
 117    3:40   0.00   22.0    81    3.4    88     4.0   825.7    0.00 
 117    3:50   0.00   20.4    78    2.2    58     5.0   825.6    0.00 
 117    4:00   0.00   17.7    82    1.3   290     3.8   825.7    0.00 
 117    4:10   0.00   18.5    83    1.4   273     2.8   825.7    0.00 
 117    4:20   0.00   16.3    82    2.3   334     5.2   825.7    0.00 
 117    4:30   0.00   16.7    86    2.3    40     4.9   825.7    0.00 
 117    4:40   0.00   17.6    85    1.3     7     3.9   825.7    0.00 
 117    4:50   0.01   15.5    83    0.1   332     0.7   825.8    0.00 
 117    5:00   0.02   15.3    86    0.4   332     1.6   826.0    0.00 
 117    5:10   0.05   17.0    87    0.0   332     0.6   826.1    0.00 
 117    5:20   0.07   18.7    84    0.1   332     1.6   826.1    0.00 
 117    5:30   0.10   19.8    81    0.5   342     2.6   826.3    0.00 
 117    5:40   0.13   21.5    78    1.4    35     3.0   826.4    0.00 
 117    5:50   0.16   23.8    74    1.3    62     2.6   826.4    0.00 
 117    6:00   0.19   25.8    73    1.2    72     3.1   826.6    0.00 
 117    6:10   0.23   28.2    71    1.3    26     2.9   826.7    0.00 
 117    6:20   0.26   29.7    71    2.1    70     3.1   826.8    0.00 
 117    6:30   0.29   32.7    68    1.3    42     2.5   826.9    0.00 
 117    6:40   0.33   35.1    64    2.7    29     4.2   827.0    0.00 
 117    6:50   0.36   36.6    54    5.0    26     7.4   827.1    0.00 
 117    7:00   0.40   37.7    50    6.2    23     8.4   827.2    0.00 
 117    7:10   0.43   38.5    47    5.7    16     7.7   827.2    0.00 
 117    7:20   0.47   39.4    44    5.8     5     8.8   827.2    0.00 
 117    7:30   0.50   40.5    41    6.1     4     9.6   827.3    0.00 
 117    7:40   0.54   41.5    38    6.4    18    10.4   827.4    0.00 
 117    7:50   0.57   42.0    36    5.3    18     8.8   827.2    0.00 
 117    8:00   0.60   42.6    36    4.9    15     8.0   827.2    0.00 
 117    8:10   0.63   43.1    34    4.2    29     7.5   827.1    0.00 
 117    8:20   0.66   43.9    33    2.8    66     6.7   827.1    0.00 
 117    8:30   0.69   44.0    33    4.5    47     9.1   827.1    0.00 
 117    8:40   0.71   45.0    32    3.8    35     8.7   826.8    0.00 
 117    8:50   0.74   45.7    30    5.4    33    10.7   826.7    0.00 
 117    9:00   0.77   46.5    30    6.2    26    10.9   826.8    0.00 
 117    9:10   0.79   47.3    29    8.1    21    13.2   826.7    0.00 
 117    9:20   0.81   48.1    28    6.8    25    12.1   826.7    0.00 
 117    9:30   0.83   48.6    28    6.0    10    11.9   826.7    0.00 
 117    9:40   0.85   48.5    27    5.0    18    11.1   826.6    0.00 
 117    9:50   0.87   49.2    28    3.2   343     8.0   826.6    0.00 
 117   10:00   0.89   49.8    27    3.4   337     9.6   826.5    0.00 
 117   10:10   0.90   50.6    27    5.7     7    11.2   826.3    0.00 
 117   10:20   0.92   51.2    28    5.4    94     9.7   826.2    0.00 
 117   10:30   0.93   51.4    26    2.4   129     9.4   826.3    0.00 
 117   10:40   0.94   51.7    26    6.4    59    13.2   826.2    0.00 
 117   10:50   0.95   51.5    26    4.9    19    11.0   826.1    0.00 
 117   11:00   0.95   52.2    26    5.6    21    13.0   826.0    0.00 
 117   11:10   0.96   52.6    26    4.2   342    11.8   826.0    0.00 
 117   11:20   0.96   53.1    26    4.4    94    12.5   825.9    0.00 
 117   11:30   0.97   53.9    25    7.9     5    14.5   825.8    0.00 
 117   11:40   0.96   54.4    24    7.6    11    12.9   825.8    0.00 
 117   11:50   0.95   55.0    24    8.9    10    13.7   825.7    0.00 
 117   12:00   0.96   54.9    23    6.9     4    12.9   825.7    0.00 
 117   12:10   0.96   55.3    23    8.4     1    15.5   825.7    0.00 
 117   12:20   0.95   55.3    22    7.2    37    12.9   825.7    0.00 
 117   12:30   0.93   55.9    22    4.6   351    14.0   825.7    0.00 
 117   12:40   0.93   56.7    21    5.5     4    14.7   825.7    0.00 
 117   12:50   0.92   56.8    21    5.4    46    11.6   825.7    0.00 
 117   13:00   0.90   57.0    21    6.7    19    17.0   825.6    0.00 
 117   13:10   0.88   57.1    21    5.1    26    10.9   825.6    0.00 
 117   13:20   0.87   57.2    21    7.0    52    11.5   825.5    0.00 
 117   13:30   0.85   57.1    20    3.8   116     9.7   825.3    0.00 
 117   13:40   0.83   57.2    20    6.5   102    11.8   825.2    0.00 
 117   13:50   0.81   58.4    20    6.9    51    12.6   825.1    0.00 
 117   14:00   0.80   58.8    18    7.9    48    13.2   825.1    0.00 
 117   14:10   0.77   58.5    19    5.5    70    12.7   824.9    0.00 
 117   14:20   0.74   58.0    20    3.2    92     8.0   824.9    0.00 
 117   14:30   0.72   59.2    19    2.0   150     7.3   824.8    0.00 
 117   14:40   0.69   60.2    18    7.2    30    13.3   824.7    0.00 
 117   14:50   0.66   59.7    18    7.4    58    13.8   824.7    0.00 
 117   15:00   0.63   59.6    19    4.0    87    10.6   824.7    0.00 
 117   15:10   0.60   59.8    18   10.5    53    15.3   824.6    0.00 
 117   15:20   0.57   59.4    18    7.5    61    12.9   824.7    0.00 
 117   15:30   0.54   59.8    20    7.2    73    13.3   824.7    0.00 
 117   15:40   0.51   59.6    20    9.1    82    15.3   824.6    0.00 
 117   15:50   0.48   59.4    19    6.4   102    11.2   824.6    0.00 
 117   16:00   0.43   59.5    19    6.8    96    12.8   824.5    0.00 
 117   16:10   0.41   59.3    20    8.8    80    13.3   824.5    0.00 
 117   16:20   0.38   59.5    19    7.3    78    11.8   824.5    0.00 
 117   16:30   0.34   59.4    19    7.5    67    12.9   824.5    0.00 
 117   16:40   0.31   59.1    20    6.4    76    11.2   824.5    0.00 
 117   16:50   0.28   59.1    21    7.3    76    11.5   824.5    0.00 
 117   17:00   0.24   58.3    23   10.7    84    14.8   824.6    0.00 
 117   17:10   0.21   57.8    23   10.5    89    14.5   824.6    0.00 
 117   17:20   0.18   57.2    24   11.6    84    15.6   824.5    0.00 
 117   17:30   0.15   56.6    25    9.9    88    13.3   824.6    0.00 
 117   17:40   0.12   56.3    26    9.8    80    13.0   824.7    0.00 
 117   17:50   0.09   55.7    25    8.8    80    12.7   824.8    0.00 
 117   18:00   0.07   54.8    27    8.4    76    12.2   824.9    0.00 
 117   18:10   0.04   53.5    30    8.1    82    11.1   824.9    0.00 
 117   18:20   0.01   52.2    32    8.3    82    11.6   824.8    0.00 
 117   18:30   0.01   51.0    32    8.7    84    12.0   824.7    0.00 
 117   18:40   0.00   50.0    33    8.1    79    10.1   824.7    0.00 
 117   18:50   0.00   48.5    34    8.6    74    10.3   824.6    0.00 
 117   19:00   0.00   48.3    37    8.3    80    11.0   824.6    0.00 
 117   19:10   0.00   47.4    36    8.4    75    11.0   824.7    0.00 
 117   19:20   0.00   46.8    36    9.7    74    12.5   824.8    0.00 
 117   19:30   0.00   46.3    36    9.8    74    12.3   824.8    0.00 
 117   19:40   0.00   46.5    36   10.5    76    12.9   824.9    0.00 
 117   19:50   0.00   46.1    37    9.1    81    12.4   825.1    0.00 
 117   20:00   0.00   46.7    34    9.9    86    14.7   825.3    0.00 
 117   20:10   0.00   45.9    36    8.6    76    11.6   825.4    0.00 
 117   20:20   0.00   44.9    37    7.5    71    10.7   825.6    0.00 
 117   20:30   0.00   44.1    37    7.9    71    10.2   825.6    0.00 
 117   20:40   0.00   43.0    40    6.8    67     9.8   825.7    0.00 
 117   20:50   0.00   42.8    40    6.2    57     8.9   825.8    0.00 
 117   21:00   0.00   41.4    43    5.0    51     6.0   825.8    0.00 
 117   21:10   0.00   37.3    53    5.4   353     7.7   825.9    0.00 
 117   21:20   0.00   37.9    49    6.6   336    12.2   826.0    0.00 
 117   21:30   0.00   40.3    44    5.3   351     6.9   826.1    0.00 
 117   21:40   0.00   38.9    47    5.7     8     7.7   826.1    0.00 
 117   21:50   0.00   37.5    51    6.2    16     7.6   826.1    0.00 
 117   22:00   0.00   35.8    55    5.8     3     7.7   826.2    0.00 
 117   22:10   0.00   32.9    61    5.8   340     9.3   826.3    0.00 
 117   22:20   0.00   35.7    52    5.2   346     7.0   826.3    0.00 
 117   22:30   0.00   33.9    57    3.0   307     4.1   826.4    0.00 
 117   22:40   0.00   34.6    52    4.6   305     5.5   826.4    0.00 
 117   22:50   0.00   34.3    49    5.7   325     7.8   826.4    0.00 
 117   23:00   0.00   34.9    49    4.7   352     6.9   826.5    0.00 
 117   23:10   0.00   32.0    57    5.9    19     7.6   826.5    0.00 
 117   23:20   0.00   34.1    53    7.1    21     8.0   826.5    0.00 
 117   23:30   0.00   34.5    53    7.0    25     8.6   826.5    0.00 
 117   23:40   0.00   33.6    56    6.1    35     7.1   826.5    0.00 
 117   23:50   0.00   31.9    60    5.3    34     6.4   826.6    0.00 
 118    0:00   0.00   31.1    63    5.9    31     7.1   826.5    0.00 
 118    0:10   0.00   31.9    60    6.8    33     7.8   826.4    0.00 
 118    0:20   0.00   31.0    62    5.7    23     6.9   826.3    0.00 
 118    0:30   0.00   28.9    67    6.3    32     7.3   826.3    0.00 
 118    0:40   0.00   30.2    64    7.1    30     8.4   826.4    0.00 
 118    0:50   0.00   31.9    60    7.5    36     9.4   826.3    0.00 
 118    1:00   0.00   32.7    59    6.7    42     8.0   826.3    0.00 
 118    1:10   0.00   32.2    59    6.0    52     6.7   826.3    0.00 
 118    1:20   0.00   30.0    62    5.9    60     7.0   826.3    0.00 
 118    1:30   0.00   28.8    66    5.5    65     6.9   826.2    0.00 
 118    1:40   0.00   28.8    66    5.2    66     6.9   826.3    0.00 
 118    1:50   0.00   31.1    62    5.5    73     6.6   826.3    0.00 

Return to Steptoe Valley North graphs page.


Western Regional Climate Center,wrcc@dri.edu